Latest Weather Observations for Kuitpo

IDS60901

Issued at 4:11 pm CST Wednesday 24 August 2016 (issued every 10 minutes, with the page automatically refreshed every 10 minutes)

About weather observations | Map of Adelaide area stations | Latest observations for Adelaide area | Other Formats
Station Details ID: 023887 Name: KUITPO FOREST RESERVE Lat: -35.17 Lon: 138.68 Height: 365.0 m
Data from the previous 72 hours. | See also: Recent months at Kuitpo
Date/Time
CST
Temp
°C
App
Temp
°C
Dew
Point
°C
Rel
Hum
%
Delta-T
°C
Wind Press
QNH
hPa
Press
MSL
hPa
Rain since
9am
mm
Dir  Spd
km/h
Gust
km/h
Spd
kts
Gust
kts
24/04:00pm 11.0 7.3 6.4 73 2.2 ESE 15 20 8 11 1013.2 1013.4 0.2
24/03:30pm 11.0 6.5 6.0 71 2.4 SE 19 28 10 15 1013.2 1013.4 0.2
24/03:00pm 10.0 6.4 6.9 81 1.5 ESE 15 20 8 11 1012.9 1013.1 0.0
24/02:30pm 10.9 8.0 6.3 73 2.2 SSE 11 20 6 11 1013.0 1013.2 0.0
24/02:00pm 12.2 8.4 5.8 65 3.1 ESE 15 22 8 12 1012.8 1013.0 0.0
24/01:30pm 11.9 7.5 4.9 62 3.3 E 17 22 9 12 1013.1 1013.3 0.0
24/01:00pm 12.5 8.7 5.7 63 3.2 ESE 15 22 8 12 1013.6 1013.7 0.0
24/12:30pm 11.9 8.1 5.8 66 2.9 ESE 15 24 8 13 1013.8 1013.9 0.0
24/12:00pm 12.0 8.0 6.5 69 2.7 E 17 22 9 12 1014.1 1014.3 0.0
24/11:30am 11.8 8.3 7.3 74 2.2 E 15 20 8 11 1014.3 1014.5 0.0
24/11:00am 10.9 6.9 6.6 75 2.1 ESE 17 22 9 12 1014.4 1014.6 0.0
24/10:30am 10.5 7.3 6.8 78 1.8 ESE 13 20 7 11 1014.6 1014.8 0.0
24/10:00am 9.5 7.1 6.9 84 1.2 E 9 13 5 7 1014.6 1014.8 0.0
24/09:30am 9.1 6.2 6.5 84 1.2 E 11 13 6 7 1014.6 1014.8 0.0
24/09:00am 8.3 5.3 6.1 86 1.0 E 11 15 6 8 1014.7 1014.9 1.8
24/08:30am 7.6 4.1 5.4 86 1.0 ESE 13 15 7 8 1014.8 1015.0 1.8
24/08:00am 7.4 4.3 5.4 87 0.9 E 11 13 6 7 1014.7 1014.9 1.8
24/07:30am 7.8 4.2 5.1 83 1.2 ENE 13 15 7 8 1014.4 1014.6 1.8
24/07:00am 7.3 3.7 4.8 84 1.1 E 13 17 7 9 1014.2 1014.4 1.8
24/06:30am 7.1 3.0 4.4 83 1.2 E 15 17 8 9 1014.0 1014.2 1.8
24/06:00am 7.2 3.1 4.3 82 1.3 E 15 17 8 9 1013.8 1013.9 1.8
24/05:30am 7.0 2.4 3.8 80 1.4 E 17 19 9 10 1013.8 1013.9 1.8
24/05:00am 6.8 2.1 3.4 79 1.5 ENE 17 19 9 10 1013.7 1013.8 1.8
24/04:30am 6.6 1.9 3.2 79 1.5 ENE 17 20 9 11 1013.5 1013.6 1.8
24/04:00am 6.6 2.3 3.0 78 1.5 ENE 15 17 8 9 1013.5 1013.6 1.8
24/03:30am 6.6 1.9 3.2 79 1.5 ENE 17 19 9 10 1013.5 1013.6 1.8
24/03:00am 6.5 2.2 3.5 81 1.3 ENE 15 17 8 9 1013.8 1013.9 1.8
24/02:30am 6.5 2.7 4.0 84 1.1 ENE 13 15 7 8 1014.0 1014.2 1.8
24/02:00am 6.3 2.5 4.0 85 1.0 ENE 13 19 7 10 1014.1 1014.3 1.8
24/01:30am 6.7 2.2 4.4 85 1.0 ENE 17 20 9 11 1014.2 1014.4 1.8
24/01:00am 6.9 2.9 4.7 86 1.0 ENE 15 19 8 10 1014.3 1014.5 1.8
24/12:30am 7.0 2.3 5.0 87 0.9 ENE 19 22 10 12 1014.3 1014.5 1.8
24/12:00am 6.9 2.6 5.4 90 0.7 E 17 22 9 12 1014.5 1014.7 1.8
 
Date/Time
CST
Temp
°C
App
Temp
°C
Dew
Point
°C
Rel
Hum
%
Delta-T
°C
Wind Press
QNH
hPa
Press
MSL
hPa
Rain since
9am
mm
Dir  Spd
km/h
Gust
km/h
Spd
kts
Gust
kts
23/11:30pm 6.9 2.7 5.5 91 0.6 E 17 24 9 13 1014.7 1014.9 1.8
23/11:00pm 7.0 2.4 5.6 91 0.6 E 19 20 10 11 1014.9 1015.1 1.8
23/10:30pm 6.9 2.3 5.7 92 0.5 E 19 20 10 11 1015.1 1015.3 1.8
23/10:00pm 6.8 2.3 6.1 95 0.3 ESE 19 22 10 12 1015.0 1015.2 1.8
23/09:30pm 6.8 2.7 6.4 97 0.2 ESE 17 20 9 11 1015.1 1015.3 1.8
23/09:00pm 7.0 3.4 6.7 98 0.1 ESE 15 19 8 10 1015.1 1015.3 1.8
23/08:30pm 7.3 3.4 7.0 98 0.1 ESE 17 20 9 11 1015.0 1015.2 1.8
23/08:00pm 7.4 3.9 7.1 98 0.1 ESE 15 20 8 11 1014.7 1014.9 1.8
23/07:30pm 7.8 4.3 7.4 97 0.2 ESE 15 22 8 12 1014.7 1014.9 1.8
23/07:00pm 7.8 4.0 7.4 97 0.2 SE 17 24 9 13 1014.6 1014.8 1.8
23/06:30pm 7.8 4.3 7.2 96 0.3 ESE 15 24 8 13 1014.6 1014.8 1.8
23/06:00pm 8.2 4.7 7.3 94 0.4 ESE 15 20 8 11 1014.3 1014.5 1.8
23/05:30pm 8.5 5.0 7.4 93 0.5 SE 15 22 8 12 1014.2 1014.4 1.8
23/05:00pm 9.3 6.5 8.5 95 0.4 SE 13 20 7 11 1014.3 1014.5 1.8
23/04:30pm 9.4 7.4 8.5 94 0.4 SE 9 15 5 8 1014.3 1014.5 1.2
23/04:00pm 10.1 8.0 8.2 88 0.9 S 9 17 5 9 1014.1 1014.3 0.2
23/03:30pm 12.9 9.9 7.8 71 2.6 SW 13 20 7 11 1013.9 1014.0 0.2
23/03:00pm 12.8 10.3 8.1 73 2.4 SW 11 17 6 9 1013.9 1014.0 0.2
23/02:30pm 12.9 10.1 8.6 75 2.2 W 13 20 7 11 1014.1 1014.3 0.2
23/02:00pm 12.4 9.1 7.9 74 2.3 W 15 24 8 13 1014.1 1014.3 0.2
23/01:30pm 12.0 10.1 6.9 71 2.5 N 6 13 3 7 1014.1 1014.3 0.2
23/01:00pm 12.3 9.6 5.5 63 3.2 ESE 9 15 5 8 1014.4 1014.6 0.2
23/12:30pm 12.9 10.0 6.3 64 3.2 ENE 11 15 6 8 1014.7 1014.9 0.2
23/12:00pm 14.0 11.7 7.3 64 3.3 NE 9 19 5 10 1015.0 1015.2 0.2
23/11:30am 11.3 8.3 6.2 71 2.4 E 11 17 6 9 1015.4 1015.6 0.2
23/11:00am 11.3 8.2 7.2 76 2.0 ENE 13 19 7 10 1015.6 1015.8 0.2
23/10:30am 11.0 8.4 7.9 81 1.5 E 11 15 6 8 1015.6 1015.8 0.2
23/10:00am 9.2 5.8 7.8 91 0.7 E 15 19 8 10 1015.7 1015.9 0.2
23/09:30am 8.6 5.4 8.3 98 0.1 ENE 15 20 8 11 1015.9 1016.1 0.0
23/09:00am 7.9 4.5 7.8 99 0.0 E 15 20 8 11 1015.6 1015.8 0.2
23/08:30am 7.3 4.2 7.2 99 0.0 E 13 19 7 10 1015.5 1015.7 0.2
23/08:00am 6.8 3.6 6.7 99 0.0 E 13 19 7 10 1015.0 1015.2 0.2
23/07:30am 6.6 3.3 6.5 99 0.0 E 13 15 7 8 1014.9 1015.1 0.2
23/07:00am 6.6 3.3 6.5 99 0.0 E 13 17 7 9 1014.8 1015.0 0.2
23/06:30am 6.4 3.0 6.1 98 0.1 ESE 13 17 7 9 1014.7 1014.9 0.2
23/06:00am 6.5 3.2 6.2 98 0.1 E 13 15 7 8 1014.6 1014.8 0.2
23/05:30am 6.7 3.4 6.4 98 0.1 ENE 13 15 7 8 1014.5 1014.7 0.2
23/05:00am 6.4 3.0 6.1 98 0.1 ENE 13 17 7 9 1014.6 1014.8 0.2
23/04:30am 6.7 3.4 6.4 98 0.1 ENE 13 17 7 9 1014.5 1014.7 0.2
23/04:00am 7.0 3.8 6.7 98 0.1 E 13 15 7 8 1014.3 1014.5 0.2
23/03:30am 6.8 3.5 6.5 98 0.1 ESE 13 15 7 8 1014.2 1014.4 0.0
23/03:00am 6.9 3.6 6.6 98 0.1 ESE 13 15 7 8 1014.4 1014.6 0.0
23/02:30am 7.2 4.0 6.9 98 0.1 E 13 17 7 9 1014.4 1014.6 0.0
23/02:00am 7.2 4.0 6.8 97 0.2 ENE 13 17 7 9 1014.5 1014.7 0.0
23/01:30am 7.1 3.9 6.7 97 0.2 ENE 13 15 7 8 1014.6 1014.8 0.0
23/01:00am 7.3 4.1 6.9 97 0.2 E 13 17 7 9 1014.5 1014.7 0.0
23/12:30am 7.3 3.7 6.9 97 0.2 ESE 15 17 8 9 1014.4 1014.6 0.0
23/12:00am 7.4 3.9 7.0 97 0.2 ESE 15 17 8 9 1014.5 1014.7 0.0
 
Date/Time
CST
Temp
°C
App
Temp
°C
Dew
Point
°C
Rel
Hum
%
Delta-T
°C
Wind Press
QNH
hPa
Press
MSL
hPa
Rain since
9am
mm
Dir  Spd
km/h
Gust
km/h
Spd
kts
Gust
kts
22/11:30pm 7.4 4.2 7.0 97 0.2 ESE 13 15 7 8 1014.6 1014.8 0.0
22/11:00pm 7.5 4.4 7.1 97 0.2 ESE 13 15 7 8 1014.7 1014.9 0.0
22/10:30pm 7.4 3.9 7.1 98 0.1 ESE 15 17 8 9 1014.8 1015.0 0.0
22/10:00pm 7.3 4.9 6.9 97 0.2 ESE 9 13 5 7 1015.0 1015.2 0.0
22/09:30pm 7.6 4.9 7.2 97 0.2 SE 11 13 6 7 1014.9 1015.1 0.0
22/09:00pm 7.8 4.7 7.4 97 0.2 ESE 13 17 7 9 1014.7 1014.9 0.0
22/08:30pm 7.6 4.4 7.0 96 0.3 SE 13 17 7 9 1014.4 1014.6 0.0
22/08:00pm 8.0 5.3 7.4 96 0.3 SE 11 15 6 8 1014.3 1014.5 0.0
22/07:30pm 8.2 5.5 7.3 94 0.4 SE 11 15 6 8 1014.0 1014.2 0.0
22/07:00pm 8.3 5.9 7.2 93 0.5 SE 9 11 5 6 1013.9 1014.0 0.0
22/06:30pm 8.8 6.5 7.3 90 0.7 SE 9 13 5 7 1013.5 1013.6 0.0
22/06:00pm 9.5 7.5 6.9 84 1.2 SE 7 11 4 6 1013.2 1013.4 0.0
22/05:30pm 10.8 7.9 6.4 74 2.1 SW 11 15 6 8 1013.0 1013.2 0.0
22/05:00pm 11.8 8.7 5.7 66 2.9 WSW 11 15 6 8 1012.8 1013.0 0.0
22/04:30pm 12.4 9.1 6.2 66 3.0 WSW 13 17 7 9 1012.5 1012.7 0.0
22/04:00pm 12.8 9.6 5.2 60 3.6 WSW 11 20 6 11 1012.1 1012.3 0.0
22/03:30pm 13.3 9.6 4.2 54 4.2 WSW 13 20 7 11 1011.9 1012.1 0.0
22/03:00pm 13.3 9.3 3.1 50 4.6 WSW 13 19 7 10 1011.9 1012.1 0.0
22/02:30pm 13.3 9.6 4.5 55 4.1 SW 13 20 7 11 1011.8 1012.0 0.0
22/02:00pm 13.8 9.7 6.2 60 3.7 W 17 24 9 13 1011.8 1012.0 0.0
22/01:30pm 13.5 10.1 5.7 59 3.8 WSW 13 19 7 10 1011.8 1012.0 0.0
22/01:00pm 14.0 11.7 5.6 57 4.0 WSW 7 15 4 8 1012.0 1012.2 0.0
22/12:30pm 13.5 10.3 3.3 50 4.7 WSW 9 13 5 7 1012.3 1012.5 0.0
22/12:00pm 13.4 10.8 4.0 53 4.4 W 7 17 4 9 1012.6 1012.8 0.0
22/11:30am 12.8 9.8 4.3 56 3.9 W 9 15 5 8 1012.8 1013.0 0.0
22/11:00am 13.0 10.5 4.9 58 3.8 NNE 7 11 4 6 1012.8 1013.0 0.0
22/10:30am 12.7 10.5 5.4 61 3.5 E 6 9 3 5 1012.9 1013.1 0.0
22/10:00am 11.9 9.4 4.6 61 3.4 E 7 9 4 5 1012.9 1013.1 0.0
22/09:30am 11.3 8.9 5.4 67 2.8 E 7 9 4 5 1012.9 1013.1 0.0
22/09:00am 10.6 7.7 4.5 66 2.8 ESE 9 13 5 7 1012.6 1012.8 0.0
22/08:30am 9.7 6.3 4.1 68 2.5 ESE 11 13 6 7 1012.5 1012.7 0.0
22/08:00am 8.9 5.7 3.1 67 2.5 E 9 13 5 7 1012.3 1012.5 0.0
22/07:30am 7.0 3.7 2.7 74 1.8 ENE 9 13 5 7 1012.1 1012.3 0.0
22/07:00am 5.9 2.6 2.2 77 1.5 ENE 9 11 5 6 1011.9 1012.1 0.0
22/06:30am 7.1 5.7 3.5 78 1.6 CALM 0 0 0 0 1011.7 1011.9 0.0
22/06:00am 6.6 5.1 3.2 79 1.5 CALM 0 0 0 0 1011.6 1011.8 0.0
22/05:30am 7.6 4.8 3.3 74 1.9 W 7 9 4 5 1011.5 1011.6 0.0
22/05:00am 6.7 4.0 3.5 80 1.4 NW 7 11 4 6 1011.5 1011.6 0.0
22/04:30am 6.8 4.2 3.2 78 1.5 NE 6 7 3 4 1011.3 1011.4 0.0
22/04:00am 5.9 3.3 3.2 83 1.1 NNE 6 9 3 5 1011.3 1011.4 0.0
22/03:30am 7.6 6.2 3.6 76 1.8 CALM 0 0 0 0 1011.5 1011.6 0.0
22/03:00am 8.5 7.2 4.3 75 1.9 CALM 0 6 0 3 1011.5 1011.6 0.0
22/02:30am 7.8 5.3 3.8 76 1.8 WSW 6 7 3 4 1011.7 1011.9 0.0
22/02:00am 7.9 5.1 3.2 72 2.0 W 7 7 4 4 1011.8 1012.0 0.0
22/01:30am 8.2 5.6 3.3 71 2.1 NW 6 7 3 4 1012.0 1012.2 0.0
22/01:00am 8.4 5.6 3.3 70 2.2 NNW 7 7 4 4 1012.0 1012.2 0.0
22/12:30am 8.6 6.4 3.2 69 2.4 NW 4 9 2 5 1012.2 1012.4 0.0
22/12:00am 8.3 6.9 3.6 72 2.1 CALM 0 0 0 0 1012.3 1012.5 0.0
 
Date/Time
CST
Temp
°C
App
Temp
°C
Dew
Point
°C
Rel
Hum
%
Delta-T
°C
Wind Press
QNH
hPa
Press
MSL
hPa
Rain since
9am
mm
Dir  Spd
km/h
Gust
km/h
Spd
kts
Gust
kts
21/11:30pm 8.1 6.7 3.8 74 1.9 CALM 0 0 0 0 1012.5 1012.7 0.0
21/11:00pm 8.6 7.3 4.2 74 2.0 CALM 0 0 0 0 1012.6 1012.8 0.0
21/10:30pm 8.6 7.3 4.2 74 2.0 CALM 0 0 0 0 1012.8 1013.0 0.0
21/10:00pm 8.8 6.4 4.2 73 2.1 NW 6 7 3 4 1012.9 1013.1 0.0
21/09:30pm 8.5 6.0 4.5 76 1.8 N 7 9 4 5 1012.9 1013.1 0.0
21/09:00pm 8.8 5.8 4.2 73 2.1 NNW 9 11 5 6 1012.9 1013.1 0.0
21/08:30pm 9.5 6.5 4.3 70 2.4 WNW 9 13 5 7 1012.9 1013.1 0.0
21/08:00pm 9.6 6.3 4.6 71 2.3 WNW 11 17 6 9 1012.7 1012.9 0.0
21/07:30pm 9.6 6.4 5.2 74 2.0 WNW 11 13 6 7 1012.5 1012.7 0.0
21/07:00pm 9.8 7.0 5.2 73 2.1 NW 9 13 5 7 1012.5 1012.7 0.0
21/06:30pm 9.9 7.0 4.9 71 2.3 NW 9 13 5 7 1012.3 1012.5 0.0
21/06:00pm 10.2 7.4 5.0 70 2.4 NW 9 13 5 7 1012.3 1012.5 0.0
21/05:30pm 11.0 7.8 4.9 66 2.8 NW 11 15 6 8 1012.2 1012.4 0.0
21/05:00pm 11.7 8.1 5.1 64 3.1 NW 13 22 7 12 1012.2 1012.4 0.0
21/04:30pm 12.7 8.9 5.8 63 3.3 NW 15 28 8 15 1012.2 1012.4 0.0

Latest Capital City Observations: Canberra | Sydney | Melbourne | Brisbane | Adelaide | Perth | Hobart | Darwin

Other Formats:

Comma delimited format used in spreadsheet applications
http://www.bom.gov.au/fwo/IDS60901/IDS60901.94683.axf

JavaScript Object Notation format (JSON) in row-major order
http://www.bom.gov.au/fwo/IDS60901/IDS60901.94683.json